createdAt,value
2022-08-18T00:00:00.198Z,976.7
2022-08-18T00:05:00.179Z,976.7
2022-08-18T00:10:00.216Z,976.4
2022-08-18T00:15:00.171Z,976.7
2022-08-18T00:20:00.215Z,978
2022-08-18T00:25:00.193Z,978.4
2022-08-18T00:30:00.236Z,978
2022-08-18T00:35:00.186Z,977.7
2022-08-18T00:40:00.392Z,977.1
2022-08-18T00:45:00.294Z,977.5
2022-08-18T00:50:00.278Z,978
2022-08-18T00:55:00.170Z,978.2
2022-08-18T01:00:00.230Z,978
2022-08-18T01:05:00.177Z,978
2022-08-18T01:10:00.190Z,978
2022-08-18T01:15:00.179Z,978.2
2022-08-18T01:20:00.186Z,978
2022-08-18T01:25:00.174Z,978.2
2022-08-18T01:30:00.190Z,978.8
2022-08-18T01:35:00.166Z,979.3
2022-08-18T01:41:22.150Z,978.8
2022-08-18T01:45:00.153Z,979.7
2022-08-18T01:50:00.175Z,979.5
2022-08-18T01:55:00.166Z,979.7
2022-08-18T02:00:00.191Z,979.3
2022-08-18T02:05:01.279Z,978.6
2022-08-18T02:10:01.275Z,978.4
2022-08-18T02:15:00.130Z,978.8
2022-08-18T02:20:00.184Z,979.3
2022-08-18T02:25:00.167Z,980.1
2022-08-18T02:30:00.217Z,980.8
2022-08-18T02:35:00.157Z,980.6
2022-08-18T02:40:00.356Z,980.4
2022-08-18T02:45:00.172Z,980.8
2022-08-18T02:50:00.185Z,981.4
2022-08-18T02:55:00.158Z,980.6
2022-08-18T03:00:00.185Z,980.8
2022-08-18T03:05:00.177Z,980.4
2022-08-18T03:10:05.708Z,980.6
2022-08-18T03:15:00.163Z,979.9
2022-08-18T03:20:00.198Z,979.9
2022-08-18T03:25:00.159Z,979.7
2022-08-18T03:30:00.201Z,979.7
2022-08-18T03:35:00.215Z,980.4
2022-08-18T03:40:00.387Z,980.6
2022-08-18T03:45:00.208Z,979.7
2022-08-18T03:50:00.253Z,980.1
2022-08-18T03:55:00.177Z,980.1
2022-08-18T04:00:00.174Z,979.7
2022-08-18T04:05:00.155Z,979.7
2022-08-18T04:10:00.201Z,980.4
2022-08-18T04:15:00.158Z,980.6
2022-08-18T04:20:00.181Z,980.8
2022-08-18T04:25:00.168Z,981
2022-08-18T04:30:00.205Z,981
2022-08-18T04:35:02.810Z,980.6
2022-08-18T04:40:00.335Z,981.2
2022-08-18T04:45:00.197Z,981
2022-08-18T04:50:00.148Z,981
2022-08-18T04:55:00.151Z,980.4
2022-08-18T05:00:00.204Z,980.6
2022-08-18T05:05:00.161Z,980.1
2022-08-18T05:10:00.221Z,980.6
2022-08-18T05:15:00.160Z,981.4
2022-08-18T05:20:01.038Z,981.9
2022-08-18T05:25:00.520Z,982.3
2022-08-18T05:30:00.179Z,982.7
2022-08-18T05:35:00.152Z,983.2
2022-08-18T05:40:00.436Z,983.2
2022-08-18T05:45:00.156Z,983.2
2022-08-18T05:50:00.159Z,983
2022-08-18T05:55:00.159Z,983.2
2022-08-18T06:00:00.211Z,983
2022-08-18T06:05:00.159Z,982.3
2022-08-18T06:10:00.156Z,982.3
2022-08-18T06:15:00.160Z,982.3
2022-08-18T06:20:00.163Z,981.9
2022-08-18T06:25:00.176Z,981.7
2022-08-18T06:30:00.197Z,981.4
2022-08-18T06:35:00.156Z,981.4
2022-08-18T06:40:00.317Z,981
2022-08-18T06:45:00.155Z,980.1
2022-08-18T06:50:00.182Z,979.9
2022-08-18T06:55:00.147Z,979.7
2022-08-18T07:00:00.186Z,979.9
2022-08-18T07:05:00.163Z,979.3
2022-08-18T07:10:00.168Z,979.5
2022-08-18T07:15:00.165Z,979.3
2022-08-18T07:20:00.188Z,978.8
2022-08-18T07:25:04.617Z,978.4
2022-08-18T07:30:00.159Z,978.4
2022-08-18T07:35:00.153Z,977.5
2022-08-18T07:40:00.244Z,976.2
2022-08-18T07:45:00.163Z,975.6
2022-08-18T07:50:20.558Z,974.3
2022-08-18T07:55:00.169Z,974.5
2022-08-18T08:00:00.195Z,974.5
2022-08-18T08:05:00.152Z,974
2022-08-18T08:10:00.186Z,974.5
2022-08-18T08:15:00.165Z,973.6
2022-08-18T08:20:01.512Z,972.7
2022-08-18T08:25:00.157Z,973.2
2022-08-18T08:30:00.170Z,972.1
2022-08-18T08:35:00.153Z,970.6
2022-08-18T08:40:00.314Z,970.6
2022-08-18T08:45:00.377Z,970.1
2022-08-18T08:50:00.568Z,968.2
2022-08-18T08:55:00.259Z,967.5
2022-08-18T09:00:00.292Z,966.7
2022-08-18T09:05:08.022Z,966.2
2022-08-18T09:10:00.227Z,967.1
2022-08-18T09:15:00.228Z,966.7
2022-08-18T09:20:00.191Z,967.3
2022-08-18T09:25:00.154Z,965.6
2022-08-18T09:30:00.177Z,964.7
2022-08-18T09:35:00.160Z,964.7
2022-08-18T09:40:00.274Z,963.6
2022-08-18T09:45:00.166Z,964
2022-08-18T09:50:02.023Z,962.5
2022-08-18T09:55:00.164Z,963.2
2022-08-18T10:00:00.244Z,962.7
2022-08-18T10:05:00.162Z,962.5
2022-08-18T10:15:00.163Z,963
2022-08-18T10:20:00.155Z,963.4
2022-08-18T10:25:14.117Z,963.6
2022-08-18T10:30:00.172Z,963.6
2022-08-18T10:35:00.157Z,962.1
2022-08-18T10:40:00.245Z,961.4
2022-08-18T10:45:00.195Z,960.4
2022-08-18T10:50:00.170Z,959.3
2022-08-18T10:55:00.190Z,958.2
2022-08-18T11:00:00.267Z,958.6
2022-08-18T11:05:00.190Z,958.2
2022-08-18T11:15:00.188Z,957.5
2022-08-18T11:20:00.178Z,957.1
2022-08-18T11:25:00.168Z,957.1
2022-08-18T11:30:00.212Z,956.4
2022-08-18T11:35:00.163Z,954.7
2022-08-18T11:40:00.306Z,955.4
2022-08-18T11:45:00.158Z,955.8
2022-08-18T11:50:00.237Z,955.1
2022-08-18T11:55:00.175Z,954.9
2022-08-18T12:05:00.161Z,955.8
2022-08-18T12:10:18.085Z,956.2
2022-08-18T12:15:11.850Z,957.1
2022-08-18T12:20:00.181Z,957.7
2022-08-18T12:25:00.162Z,958.8
2022-08-18T12:30:00.186Z,958.6
2022-08-18T12:35:05.308Z,958.6
2022-08-18T12:40:00.236Z,958.4
2022-08-18T12:45:00.171Z,957.3
2022-08-18T12:50:01.130Z,956.9
2022-08-18T12:55:00.160Z,956.9
2022-08-18T13:00:00.218Z,956.7
2022-08-18T13:05:00.263Z,956
2022-08-18T13:10:00.175Z,956.9
2022-08-18T13:15:00.168Z,957.3
2022-08-18T13:20:00.443Z,957.1
2022-08-18T13:25:00.155Z,958.6
2022-08-18T13:30:00.288Z,958.4
2022-08-18T13:35:00.158Z,958
2022-08-18T13:40:00.277Z,958.4
2022-08-18T13:45:23.033Z,957.5
2022-08-18T13:50:00.250Z,956.2
2022-08-18T13:55:00.416Z,956.7
2022-08-18T14:00:00.222Z,957.3
2022-08-18T14:05:00.216Z,958
2022-08-18T14:10:03.686Z,958.4
2022-08-18T14:15:00.325Z,959.3
2022-08-18T14:20:00.265Z,960.8
2022-08-18T14:25:00.523Z,961.2
2022-08-18T14:30:00.321Z,961.9
2022-08-18T14:35:28.455Z,962.3
2022-08-18T14:40:00.315Z,962.7
2022-08-18T14:45:18.061Z,963.2
2022-08-18T14:50:00.270Z,963.6
2022-08-18T14:55:00.136Z,963.8
2022-08-18T15:00:00.249Z,964
2022-08-18T15:05:00.140Z,964.5
2022-08-18T15:10:14.979Z,964.9
2022-08-18T15:15:00.135Z,965.4
2022-08-18T15:20:01.401Z,965.8
2022-08-18T15:25:00.136Z,966.4
2022-08-18T15:30:00.138Z,967.1
2022-08-18T15:35:00.169Z,967.1
2022-08-18T15:40:00.360Z,967.5
2022-08-18T15:45:00.141Z,968
2022-08-18T15:50:00.140Z,968
2022-08-18T15:55:02.342Z,967.7
2022-08-18T16:00:00.153Z,968.4
2022-08-18T16:05:01.101Z,968.6
2022-08-18T16:10:00.153Z,970.1
2022-08-18T16:15:00.252Z,971.4
2022-08-18T16:20:00.173Z,972.3
2022-08-18T16:25:00.181Z,973.2
2022-08-18T16:30:00.154Z,973.6
2022-08-18T16:35:00.180Z,974.5
2022-08-18T16:40:00.341Z,975.6
2022-08-18T16:45:00.164Z,975.8
2022-08-18T16:50:00.273Z,976.2
2022-08-18T16:55:00.159Z,976.7
2022-08-18T17:00:00.160Z,976.4
2022-08-18T17:05:00.165Z,976.2
2022-08-18T17:10:00.160Z,976.4
2022-08-18T17:15:00.150Z,977.1
2022-08-18T17:20:00.152Z,976
2022-08-18T17:25:00.168Z,977.1
2022-08-18T17:30:00.172Z,977.5
2022-08-18T17:35:00.151Z,977.5
2022-08-18T17:40:00.250Z,978.2
2022-08-18T17:45:00.531Z,978.8
2022-08-18T17:50:26.490Z,978.4
2022-08-18T17:55:00.201Z,978.4
2022-08-18T18:00:00.156Z,978.4
2022-08-18T18:05:00.173Z,978.2
2022-08-18T18:10:00.153Z,978.4
2022-08-18T18:15:00.163Z,978.2
2022-08-18T18:20:00.158Z,978.4
2022-08-18T18:25:00.159Z,978
2022-08-18T18:30:00.168Z,978.4
2022-08-18T18:35:00.174Z,978.4
2022-08-18T18:40:00.302Z,978.4
2022-08-18T18:45:00.160Z,978.4
2022-08-18T18:50:00.179Z,978.4
2022-08-18T18:55:00.154Z,978.4
2022-08-18T19:00:00.350Z,978.4
2022-08-18T19:05:00.158Z,978.8
2022-08-18T19:10:00.180Z,978.8
2022-08-18T19:15:00.651Z,978.8
2022-08-18T19:20:00.156Z,978.8
2022-08-18T19:25:00.159Z,979.3
2022-08-18T19:30:00.181Z,979.3
2022-08-18T19:35:00.156Z,979
2022-08-18T19:40:00.292Z,979.7
2022-08-18T19:45:15.805Z,979.7
2022-08-18T19:50:00.168Z,979.5
2022-08-18T19:55:00.170Z,979.3
2022-08-18T20:00:00.182Z,979.3
2022-08-18T20:05:00.159Z,979.5
2022-08-18T20:10:00.175Z,979.3
2022-08-18T20:15:00.162Z,979.7
2022-08-18T20:20:00.181Z,980.6
2022-08-18T20:25:00.279Z,980.8
2022-08-18T20:30:00.183Z,981
2022-08-18T20:35:00.159Z,980.8
2022-08-18T20:40:00.293Z,980.6
2022-08-18T20:45:00.180Z,979.9
2022-08-18T20:50:00.160Z,980.1
2022-08-18T20:55:00.157Z,980.1
2022-08-18T21:00:00.165Z,979.9
2022-08-18T21:05:00.210Z,979.5
2022-08-18T21:10:00.181Z,980.6
2022-08-18T21:15:00.259Z,981.7
2022-08-18T21:20:00.275Z,981.7
2022-08-18T21:25:00.285Z,981.9
2022-08-18T21:30:00.217Z,981.9
2022-08-18T21:35:00.152Z,981.9
2022-08-18T21:40:00.299Z,981.4
2022-08-18T21:45:01.037Z,981.4
2022-08-18T21:50:00.192Z,981
2022-08-18T21:55:00.155Z,981
2022-08-18T22:00:00.176Z,980.8
2022-08-18T22:05:00.164Z,980.6
2022-08-18T22:10:00.165Z,980.4
2022-08-18T22:15:00.171Z,980.8
2022-08-18T22:20:00.162Z,981
2022-08-18T22:25:00.177Z,981
2022-08-18T22:30:00.163Z,980.6
2022-08-18T22:35:00.164Z,980.6
2022-08-18T22:40:00.329Z,981
2022-08-18T22:45:04.525Z,981
2022-08-18T22:50:00.173Z,981
2022-08-18T22:55:06.777Z,981
2022-08-18T23:00:00.184Z,981
2022-08-18T23:05:00.168Z,980.6
2022-08-18T23:10:00.178Z,980.6
2022-08-18T23:15:00.172Z,980.8
2022-08-18T23:20:00.176Z,980.6
2022-08-18T23:25:00.192Z,981
2022-08-18T23:30:00.219Z,981
2022-08-18T23:35:00.179Z,981.2
2022-08-18T23:40:00.341Z,981.9
2022-08-18T23:45:00.170Z,982.3
2022-08-18T23:50:00.197Z,982.7
2022-08-18T23:55:00.171Z,983
